sensor_id;sensor_type;location;lat;lon;timestamp;P1;durP1;ratioP1;P2;durP2;ratioP2
2175;SDS011;1094;49.902;10.876;2023-04-25T00:00:28;23.97;;;22.37;;
2175;SDS011;1094;49.902;10.876;2023-04-25T00:02:54;23.77;;;22.33;;
2175;SDS011;1094;49.902;10.876;2023-04-25T00:05:21;24.67;;;23.07;;
2175;SDS011;1094;49.902;10.876;2023-04-25T00:07:48;23.83;;;22.33;;
2175;SDS011;1094;49.902;10.876;2023-04-25T00:10:14;23.90;;;22.40;;
2175;SDS011;1094;49.902;10.876;2023-04-25T00:12:40;24.43;;;22.93;;
2175;SDS011;1094;49.902;10.876;2023-04-25T00:15:06;23.80;;;22.30;;
2175;SDS011;1094;49.902;10.876;2023-04-25T00:17:32;23.50;;;22.00;;
2175;SDS011;1094;49.902;10.876;2023-04-25T00:19:59;24.53;;;22.90;;
2175;SDS011;1094;49.902;10.876;2023-04-25T00:22:25;23.47;;;21.90;;
2175;SDS011;1094;49.902;10.876;2023-04-25T00:24:51;23.80;;;22.20;;
2175;SDS011;1094;49.902;10.876;2023-04-25T00:27:18;23.77;;;22.37;;
2175;SDS011;1094;49.902;10.876;2023-04-25T00:29:44;23.87;;;22.57;;
2175;SDS011;1094;49.902;10.876;2023-04-25T00:32:10;23.27;;;21.87;;
2175;SDS011;1094;49.902;10.876;2023-04-25T00:34:36;22.50;;;21.30;;
2175;SDS011;1094;49.902;10.876;2023-04-25T00:37:02;23.30;;;22.00;;
2175;SDS011;1094;49.902;10.876;2023-04-25T00:39:28;23.50;;;22.20;;
2175;SDS011;1094;49.902;10.876;2023-04-25T00:41:54;23.07;;;21.77;;
2175;SDS011;1094;49.902;10.876;2023-04-25T00:44:20;23.50;;;22.00;;
2175;SDS011;1094;49.902;10.876;2023-04-25T00:46:47;23.10;;;21.60;;
2175;SDS011;1094;49.902;10.876;2023-04-25T00:49:14;23.63;;;22.13;;
2175;SDS011;1094;49.902;10.876;2023-04-25T00:51:41;23.43;;;21.93;;
2175;SDS011;1094;49.902;10.876;2023-04-25T00:54:08;23.50;;;22.10;;
2175;SDS011;1094;49.902;10.876;2023-04-25T00:56:35;24.70;;;22.87;;
2175;SDS011;1094;49.902;10.876;2023-04-25T00:59:01;23.13;;;21.50;;
2175;SDS011;1094;49.902;10.876;2023-04-25T01:01:27;23.73;;;22.33;;
2175;SDS011;1094;49.902;10.876;2023-04-25T01:03:53;23.47;;;22.07;;
2175;SDS011;1094;49.902;10.876;2023-04-25T01:06:19;23.67;;;22.07;;
2175;SDS011;1094;49.902;10.876;2023-04-25T01:08:45;23.43;;;22.03;;
2175;SDS011;1094;49.902;10.876;2023-04-25T01:11:11;22.90;;;21.60;;
2175;SDS011;1094;49.902;10.876;2023-04-25T01:13:37;23.03;;;21.73;;
2175;SDS011;1094;49.902;10.876;2023-04-25T01:16:03;24.10;;;22.70;;
2175;SDS011;1094;49.902;10.876;2023-04-25T01:18:29;24.10;;;22.50;;
2175;SDS011;1094;49.902;10.876;2023-04-25T01:20:55;24.40;;;22.80;;
2175;SDS011;1094;49.902;10.876;2023-04-25T01:23:21;22.80;;;21.40;;
2175;SDS011;1094;49.902;10.876;2023-04-25T01:25:48;23.67;;;22.23;;
2175;SDS011;1094;49.902;10.876;2023-04-25T01:28:14;23.67;;;22.27;;
2175;SDS011;1094;49.902;10.876;2023-04-25T01:30:40;23.70;;;22.13;;
2175;SDS011;1094;49.902;10.876;2023-04-25T01:33:07;23.90;;;22.40;;
2175;SDS011;1094;49.902;10.876;2023-04-25T01:35:33;23.37;;;21.77;;
2175;SDS011;1094;49.902;10.876;2023-04-25T01:37:59;23.10;;;21.70;;
2175;SDS011;1094;49.902;10.876;2023-04-25T01:40:26;24.10;;;22.10;;
2175;SDS011;1094;49.902;10.876;2023-04-25T01:42:53;23.63;;;22.13;;
2175;SDS011;1094;49.902;10.876;2023-04-25T01:45:19;22.87;;;21.47;;
2175;SDS011;1094;49.902;10.876;2023-04-25T01:47:45;25.33;;;23.83;;
2175;SDS011;1094;49.902;10.876;2023-04-25T01:50:15;24.40;;;22.80;;
2175;SDS011;1094;49.902;10.876;2023-04-25T01:52:42;24.43;;;22.93;;
2175;SDS011;1094;49.902;10.876;2023-04-25T01:55:08;24.23;;;22.37;;
2175;SDS011;1094;49.902;10.876;2023-04-25T01:57:34;23.07;;;21.70;;
2175;SDS011;1094;49.902;10.876;2023-04-25T02:00:01;24.97;;;23.27;;
2175;SDS011;1094;49.902;10.876;2023-04-25T02:02:28;23.53;;;22.10;;
2175;SDS011;1094;49.902;10.876;2023-04-25T02:04:53;25.07;;;23.47;;
2175;SDS011;1094;49.902;10.876;2023-04-25T02:07:21;24.90;;;23.20;;
2175;SDS011;1094;49.902;10.876;2023-04-25T02:09:46;24.33;;;22.73;;
2175;SDS011;1094;49.902;10.876;2023-04-25T02:12:12;25.10;;;23.40;;
2175;SDS011;1094;49.902;10.876;2023-04-25T02:14:38;24.20;;;22.70;;
2175;SDS011;1094;49.902;10.876;2023-04-25T02:17:04;24.07;;;22.37;;
2175;SDS011;1094;49.902;10.876;2023-04-25T02:19:30;25.50;;;23.80;;
2175;SDS011;1094;49.902;10.876;2023-04-25T02:21:56;25.30;;;23.50;;
2175;SDS011;1094;49.902;10.876;2023-04-25T02:24:23;24.20;;;22.60;;
2175;SDS011;1094;49.902;10.876;2023-04-25T02:26:49;25.27;;;23.57;;
2175;SDS011;1094;49.902;10.876;2023-04-25T02:29:15;25.10;;;23.50;;
2175;SDS011;1094;49.902;10.876;2023-04-25T02:31:41;25.53;;;23.77;;
2175;SDS011;1094;49.902;10.876;2023-04-25T02:34:07;26.93;;;25.33;;
2175;SDS011;1094;49.902;10.876;2023-04-25T02:36:33;25.87;;;24.17;;
2175;SDS011;1094;49.902;10.876;2023-04-25T02:39:00;25.47;;;23.77;;
2175;SDS011;1094;49.902;10.876;2023-04-25T02:41:27;26.00;;;24.20;;
2175;SDS011;1094;49.902;10.876;2023-04-25T02:43:53;27.00;;;25.07;;
2175;SDS011;1094;49.902;10.876;2023-04-25T02:46:19;25.97;;;24.27;;
2175;SDS011;1094;49.902;10.876;2023-04-25T02:48:46;25.70;;;24.07;;
2175;SDS011;1094;49.902;10.876;2023-04-25T02:51:12;27.20;;;25.10;;
2175;SDS011;1094;49.902;10.876;2023-04-25T02:53:38;25.63;;;23.83;;
2175;SDS011;1094;49.902;10.876;2023-04-25T02:56:04;25.50;;;23.70;;
2175;SDS011;1094;49.902;10.876;2023-04-25T02:58:30;25.50;;;23.80;;
2175;SDS011;1094;49.902;10.876;2023-04-25T03:00:56;24.57;;;22.97;;
2175;SDS011;1094;49.902;10.876;2023-04-25T03:03:22;25.23;;;23.53;;
2175;SDS011;1094;49.902;10.876;2023-04-25T03:05:48;26.50;;;24.57;;
2175;SDS011;1094;49.902;10.876;2023-04-25T03:08:15;26.03;;;24.10;;
2175;SDS011;1094;49.902;10.876;2023-04-25T03:10:41;26.97;;;24.97;;
2175;SDS011;1094;49.902;10.876;2023-04-25T03:13:07;25.53;;;23.73;;
2175;SDS011;1094;49.902;10.876;2023-04-25T03:15:33;26.70;;;24.93;;
2175;SDS011;1094;49.902;10.876;2023-04-25T03:17:59;25.70;;;23.73;;
2175;SDS011;1094;49.902;10.876;2023-04-25T03:20:25;25.63;;;23.93;;
2175;SDS011;1094;49.902;10.876;2023-04-25T03:22:51;25.50;;;23.70;;
2175;SDS011;1094;49.902;10.876;2023-04-25T03:25:18;25.57;;;23.77;;
2175;SDS011;1094;49.902;10.876;2023-04-25T03:27:44;24.57;;;23.17;;
2175;SDS011;1094;49.902;10.876;2023-04-25T03:30:10;25.73;;;23.83;;
2175;SDS011;1094;49.902;10.876;2023-04-25T03:32:36;26.20;;;24.40;;
2175;SDS011;1094;49.902;10.876;2023-04-25T03:35:02;24.93;;;22.90;;
2175;SDS011;1094;49.902;10.876;2023-04-25T03:37:28;24.93;;;23.13;;
2175;SDS011;1094;49.902;10.876;2023-04-25T03:39:54;25.40;;;23.70;;
2175;SDS011;1094;49.902;10.876;2023-04-25T03:42:20;27.80;;;24.00;;
2175;SDS011;1094;49.902;10.876;2023-04-25T03:44:47;27.30;;;25.30;;
2175;SDS011;1094;49.902;10.876;2023-04-25T03:47:13;25.53;;;23.77;;
2175;SDS011;1094;49.902;10.876;2023-04-25T03:49:39;25.20;;;23.33;;
2175;SDS011;1094;49.902;10.876;2023-04-25T03:52:05;26.53;;;24.53;;
2175;SDS011;1094;49.902;10.876;2023-04-25T03:54:31;24.67;;;23.00;;
2175;SDS011;1094;49.902;10.876;2023-04-25T03:56:57;24.83;;;23.30;;
2175;SDS011;1094;49.902;10.876;2023-04-25T03:59:23;25.50;;;23.70;;
2175;SDS011;1094;49.902;10.876;2023-04-25T04:01:51;25.43;;;23.53;;
2175;SDS011;1094;49.902;10.876;2023-04-25T04:04:17;25.20;;;23.40;;
2175;SDS011;1094;49.902;10.876;2023-04-25T04:06:43;25.50;;;23.60;;
2175;SDS011;1094;49.902;10.876;2023-04-25T04:09:09;25.27;;;23.50;;
2175;SDS011;1094;49.902;10.876;2023-04-25T04:11:36;24.80;;;23.10;;
2175;SDS011;1094;49.902;10.876;2023-04-25T04:14:03;23.90;;;22.30;;
2175;SDS011;1094;49.902;10.876;2023-04-25T04:16:30;24.57;;;22.97;;
2175;SDS011;1094;49.902;10.876;2023-04-25T04:18:56;23.70;;;22.10;;
2175;SDS011;1094;49.902;10.876;2023-04-25T04:21:22;24.13;;;22.33;;
2175;SDS011;1094;49.902;10.876;2023-04-25T04:23:48;24.77;;;22.70;;
2175;SDS011;1094;49.902;10.876;2023-04-25T04:26:14;24.57;;;22.53;;
2175;SDS011;1094;49.902;10.876;2023-04-25T04:28:41;23.47;;;21.90;;
2175;SDS011;1094;49.902;10.876;2023-04-25T04:31:07;22.90;;;21.50;;
2175;SDS011;1094;49.902;10.876;2023-04-25T04:33:34;22.93;;;21.23;;
2175;SDS011;1094;49.902;10.876;2023-04-25T04:36:00;23.33;;;21.73;;
2175;SDS011;1094;49.902;10.876;2023-04-25T04:38:27;22.40;;;21.00;;
2175;SDS011;1094;49.902;10.876;2023-04-25T04:40:54;24.10;;;22.40;;
2175;SDS011;1094;49.902;10.876;2023-04-25T04:43:20;23.60;;;22.00;;
2175;SDS011;1094;49.902;10.876;2023-04-25T04:45:47;23.33;;;21.77;;
2175;SDS011;1094;49.902;10.876;2023-04-25T04:48:14;22.73;;;21.23;;
2175;SDS011;1094;49.902;10.876;2023-04-25T04:50:40;22.67;;;21.33;;
2175;SDS011;1094;49.902;10.876;2023-04-25T04:53:06;23.47;;;21.93;;
2175;SDS011;1094;49.902;10.876;2023-04-25T04:55:32;22.93;;;21.33;;
2175;SDS011;1094;49.902;10.876;2023-04-25T04:57:58;22.57;;;21.17;;
2175;SDS011;1094;49.902;10.876;2023-04-25T05:00:24;21.87;;;20.57;;
2175;SDS011;1094;49.902;10.876;2023-04-25T05:02:51;22.40;;;21.00;;
2175;SDS011;1094;49.902;10.876;2023-04-25T05:05:16;22.37;;;20.90;;
2175;SDS011;1094;49.902;10.876;2023-04-25T05:07:42;23.20;;;21.80;;
2175;SDS011;1094;49.902;10.876;2023-04-25T05:10:10;23.00;;;21.60;;
2175;SDS011;1094;49.902;10.876;2023-04-25T05:12:36;23.00;;;21.40;;
2175;SDS011;1094;49.902;10.876;2023-04-25T05:15:02;22.27;;;20.83;;
2175;SDS011;1094;49.902;10.876;2023-04-25T05:17:28;23.87;;;22.10;;
2175;SDS011;1094;49.902;10.876;2023-04-25T05:19:54;23.10;;;21.60;;
2175;SDS011;1094;49.902;10.876;2023-04-25T05:22:20;23.27;;;21.73;;
2175;SDS011;1094;49.902;10.876;2023-04-25T05:24:46;24.20;;;22.63;;
2175;SDS011;1094;49.902;10.876;2023-04-25T05:27:13;24.50;;;22.80;;
2175;SDS011;1094;49.902;10.876;2023-04-25T05:29:39;24.07;;;22.47;;
2175;SDS011;1094;49.902;10.876;2023-04-25T05:32:05;23.50;;;22.00;;
2175;SDS011;1094;49.902;10.876;2023-04-25T05:34:32;23.80;;;22.00;;
2175;SDS011;1094;49.902;10.876;2023-04-25T05:36:58;24.70;;;23.10;;
2175;SDS011;1094;49.902;10.876;2023-04-25T05:39:24;24.47;;;22.47;;
2175;SDS011;1094;49.902;10.876;2023-04-25T05:41:50;24.03;;;22.27;;
2175;SDS011;1094;49.902;10.876;2023-04-25T05:44:16;23.83;;;22.23;;
2175;SDS011;1094;49.902;10.876;2023-04-25T05:46:42;24.27;;;22.53;;
2175;SDS011;1094;49.902;10.876;2023-04-25T05:49:08;23.20;;;21.67;;
2175;SDS011;1094;49.902;10.876;2023-04-25T05:51:33;23.67;;;22.10;;
2175;SDS011;1094;49.902;10.876;2023-04-25T05:53:59;23.50;;;22.00;;
2175;SDS011;1094;49.902;10.876;2023-04-25T05:56:25;23.50;;;21.90;;
2175;SDS011;1094;49.902;10.876;2023-04-25T05:58:51;24.17;;;22.50;;
2175;SDS011;1094;49.902;10.876;2023-04-25T06:01:18;24.70;;;23.00;;
2175;SDS011;1094;49.902;10.876;2023-04-25T06:03:44;23.97;;;22.47;;
2175;SDS011;1094;49.902;10.876;2023-04-25T06:06:11;25.30;;;23.60;;
2175;SDS011;1094;49.902;10.876;2023-04-25T06:08:37;24.50;;;22.90;;
2175;SDS011;1094;49.902;10.876;2023-04-25T06:11:03;23.17;;;21.67;;
2175;SDS011;1094;49.902;10.876;2023-04-25T06:13:29;25.10;;;23.10;;
2175;SDS011;1094;49.902;10.876;2023-04-25T06:15:55;25.27;;;23.30;;
2175;SDS011;1094;49.902;10.876;2023-04-25T06:18:21;25.20;;;23.40;;
2175;SDS011;1094;49.902;10.876;2023-04-25T06:20:47;25.10;;;23.30;;
2175;SDS011;1094;49.902;10.876;2023-04-25T06:23:13;25.90;;;24.00;;
2175;SDS011;1094;49.902;10.876;2023-04-25T06:25:39;26.90;;;24.80;;
2175;SDS011;1094;49.902;10.876;2023-04-25T06:28:05;26.67;;;24.77;;
2175;SDS011;1094;49.902;10.876;2023-04-25T06:30:31;26.70;;;24.80;;
2175;SDS011;1094;49.902;10.876;2023-04-25T06:32:57;27.93;;;25.93;;
2175;SDS011;1094;49.902;10.876;2023-04-25T06:35:23;28.00;;;26.00;;
2175;SDS011;1094;49.902;10.876;2023-04-25T06:37:49;27.50;;;25.50;;
2175;SDS011;1094;49.902;10.876;2023-04-25T06:40:15;28.57;;;26.60;;
2175;SDS011;1094;49.902;10.876;2023-04-25T06:42:42;29.27;;;27.13;;
2175;SDS011;1094;49.902;10.876;2023-04-25T06:45:08;27.73;;;25.67;;
2175;SDS011;1094;49.902;10.876;2023-04-25T06:47:37;29.03;;;26.90;;
2175;SDS011;1094;49.902;10.876;2023-04-25T06:50:04;29.60;;;27.50;;
2175;SDS011;1094;49.902;10.876;2023-04-25T06:52:30;28.40;;;26.40;;
2175;SDS011;1094;49.902;10.876;2023-04-25T06:54:57;27.03;;;25.13;;
2175;SDS011;1094;49.902;10.876;2023-04-25T06:57:22;29.10;;;26.90;;
2175;SDS011;1094;49.902;10.876;2023-04-25T06:59:48;28.50;;;26.40;;
2175;SDS011;1094;49.902;10.876;2023-04-25T07:02:14;27.20;;;25.30;;
2175;SDS011;1094;49.902;10.876;2023-04-25T07:04:40;26.40;;;24.60;;
2175;SDS011;1094;49.902;10.876;2023-04-25T07:07:06;24.80;;;23.20;;
2175;SDS011;1094;49.902;10.876;2023-04-25T07:09:32;26.37;;;24.40;;
2175;SDS011;1094;49.902;10.876;2023-04-25T07:11:59;23.80;;;22.10;;
2175;SDS011;1094;49.902;10.876;2023-04-25T07:14:26;23.60;;;22.13;;
2175;SDS011;1094;49.902;10.876;2023-04-25T07:16:52;23.53;;;22.00;;
2175;SDS011;1094;49.902;10.876;2023-04-25T07:19:20;24.07;;;22.40;;
2175;SDS011;1094;49.902;10.876;2023-04-25T07:21:46;23.07;;;21.17;;
2175;SDS011;1094;49.902;10.876;2023-04-25T07:24:12;22.53;;;21.10;;
2175;SDS011;1094;49.902;10.876;2023-04-25T07:26:38;22.77;;;21.37;;
2175;SDS011;1094;49.902;10.876;2023-04-25T07:29:04;21.63;;;20.33;;
2175;SDS011;1094;49.902;10.876;2023-04-25T07:31:30;22.33;;;20.93;;
2175;SDS011;1094;49.902;10.876;2023-04-25T07:33:56;22.60;;;21.07;;
2175;SDS011;1094;49.902;10.876;2023-04-25T07:36:22;22.73;;;21.13;;
2175;SDS011;1094;49.902;10.876;2023-04-25T07:38:48;22.00;;;20.30;;
2175;SDS011;1094;49.902;10.876;2023-04-25T07:41:14;21.00;;;19.80;;
2175;SDS011;1094;49.902;10.876;2023-04-25T07:43:40;21.63;;;20.43;;
2175;SDS011;1094;49.902;10.876;2023-04-25T07:46:05;21.70;;;20.30;;
2175;SDS011;1094;49.902;10.876;2023-04-25T07:48:31;21.93;;;20.73;;
2175;SDS011;1094;49.902;10.876;2023-04-25T07:50:57;23.20;;;21.47;;
2175;SDS011;1094;49.902;10.876;2023-04-25T07:53:23;22.80;;;21.20;;
2175;SDS011;1094;49.902;10.876;2023-04-25T07:55:50;21.60;;;20.30;;
2175;SDS011;1094;49.902;10.876;2023-04-25T07:58:16;22.90;;;21.40;;
2175;SDS011;1094;49.902;10.876;2023-04-25T08:00:46;22.57;;;21.00;;
2175;SDS011;1094;49.902;10.876;2023-04-25T08:03:12;21.33;;;19.90;;
2175;SDS011;1094;49.902;10.876;2023-04-25T08:05:38;22.30;;;20.70;;
2175;SDS011;1094;49.902;10.876;2023-04-25T08:08:03;21.27;;;19.93;;
2175;SDS011;1094;49.902;10.876;2023-04-25T08:10:31;21.23;;;19.63;;
2175;SDS011;1094;49.902;10.876;2023-04-25T08:12:57;20.87;;;19.63;;
2175;SDS011;1094;49.902;10.876;2023-04-25T08:15:23;20.40;;;19.30;;
2175;SDS011;1094;49.902;10.876;2023-04-25T08:17:50;20.67;;;19.47;;
2175;SDS011;1094;49.902;10.876;2023-04-25T08:20:16;20.80;;;19.60;;
2175;SDS011;1094;49.902;10.876;2023-04-25T08:22:42;20.40;;;19.20;;
2175;SDS011;1094;49.902;10.876;2023-04-25T08:25:08;20.60;;;19.50;;
2175;SDS011;1094;49.902;10.876;2023-04-25T08:27:34;20.30;;;19.20;;
2175;SDS011;1094;49.902;10.876;2023-04-25T08:30:01;20.80;;;19.60;;
2175;SDS011;1094;49.902;10.876;2023-04-25T08:32:28;20.77;;;19.27;;
2175;SDS011;1094;49.902;10.876;2023-04-25T08:34:54;20.63;;;19.30;;
2175;SDS011;1094;49.902;10.876;2023-04-25T08:37:20;20.20;;;19.10;;
2175;SDS011;1094;49.902;10.876;2023-04-25T08:39:46;20.17;;;19.03;;
2175;SDS011;1094;49.902;10.876;2023-04-25T08:42:17;21.10;;;19.80;;
2175;SDS011;1094;49.902;10.876;2023-04-25T08:44:44;20.57;;;19.17;;
2175;SDS011;1094;49.902;10.876;2023-04-25T08:47:11;19.80;;;18.60;;
2175;SDS011;1094;49.902;10.876;2023-04-25T08:49:37;19.23;;;18.23;;
2175;SDS011;1094;49.902;10.876;2023-04-25T08:52:04;20.67;;;19.40;;
2175;SDS011;1094;49.902;10.876;2023-04-25T08:54:35;20.80;;;19.60;;
2175;SDS011;1094;49.902;10.876;2023-04-25T08:57:02;20.00;;;18.80;;
2175;SDS011;1094;49.902;10.876;2023-04-25T08:59:29;20.20;;;18.90;;
2175;SDS011;1094;49.902;10.876;2023-04-25T09:01:55;20.40;;;19.17;;
2175;SDS011;1094;49.902;10.876;2023-04-25T09:04:21;19.97;;;18.87;;
2175;SDS011;1094;49.902;10.876;2023-04-25T09:06:48;20.47;;;19.10;;
2175;SDS011;1094;49.902;10.876;2023-04-25T09:09:14;21.30;;;19.70;;
2175;SDS011;1094;49.902;10.876;2023-04-25T09:11:40;21.37;;;20.03;;
2175;SDS011;1094;49.902;10.876;2023-04-25T09:14:10;19.73;;;18.63;;
2175;SDS011;1094;49.902;10.876;2023-04-25T09:16:44;19.00;;;18.00;;
2175;SDS011;1094;49.902;10.876;2023-04-25T09:21:49;18.23;;;17.23;;
2175;SDS011;1094;49.902;10.876;2023-04-25T09:24:15;17.30;;;16.50;;
2175;SDS011;1094;49.902;10.876;2023-04-25T09:26:41;18.00;;;17.10;;
2175;SDS011;1094;49.902;10.876;2023-04-25T09:29:07;19.43;;;18.20;;
2175;SDS011;1094;49.902;10.876;2023-04-25T09:31:33;18.50;;;17.50;;
2175;SDS011;1094;49.902;10.876;2023-04-25T09:33:59;18.73;;;17.80;;
2175;SDS011;1094;49.902;10.876;2023-04-25T09:36:26;18.60;;;17.60;;
2175;SDS011;1094;49.902;10.876;2023-04-25T09:38:52;18.17;;;17.10;;
2175;SDS011;1094;49.902;10.876;2023-04-25T09:41:22;17.80;;;16.80;;
2175;SDS011;1094;49.902;10.876;2023-04-25T09:43:48;18.57;;;17.47;;
2175;SDS011;1094;49.902;10.876;2023-04-25T09:46:15;19.53;;;18.00;;
2175;SDS011;1094;49.902;10.876;2023-04-25T09:48:43;20.80;;;19.37;;
2175;SDS011;1094;49.902;10.876;2023-04-25T09:51:13;20.03;;;18.63;;
2175;SDS011;1094;49.902;10.876;2023-04-25T09:53:40;19.60;;;18.27;;
2175;SDS011;1094;49.902;10.876;2023-04-25T09:56:08;19.70;;;18.60;;
2175;SDS011;1094;49.902;10.876;2023-04-25T09:58:35;18.93;;;17.83;;
2175;SDS011;1094;49.902;10.876;2023-04-25T10:01:02;18.27;;;17.27;;
2175;SDS011;1094;49.902;10.876;2023-04-25T10:03:29;18.50;;;17.50;;
2175;SDS011;1094;49.902;10.876;2023-04-25T10:05:56;17.50;;;16.70;;
2175;SDS011;1094;49.902;10.876;2023-04-25T10:08:24;17.43;;;16.53;;
2175;SDS011;1094;49.902;10.876;2023-04-25T10:10:51;18.43;;;17.53;;
2175;SDS011;1094;49.902;10.876;2023-04-25T10:13:17;18.30;;;17.20;;
2175;SDS011;1094;49.902;10.876;2023-04-25T10:16:00;17.60;;;16.70;;
2175;SDS011;1094;49.902;10.876;2023-04-25T10:18:27;18.30;;;17.37;;
2175;SDS011;1094;49.902;10.876;2023-04-25T10:20:54;17.33;;;16.23;;
2175;SDS011;1094;49.902;10.876;2023-04-25T10:23:20;17.97;;;16.87;;
2175;SDS011;1094;49.902;10.876;2023-04-25T10:25:46;17.00;;;16.20;;
2175;SDS011;1094;49.902;10.876;2023-04-25T10:28:12;17.00;;;16.20;;
2175;SDS011;1094;49.902;10.876;2023-04-25T10:30:53;16.53;;;15.73;;
2175;SDS011;1094;49.902;10.876;2023-04-25T10:33:29;16.90;;;16.10;;
2175;SDS011;1094;49.902;10.876;2023-04-25T10:35:57;17.07;;;16.27;;
2175;SDS011;1094;49.902;10.876;2023-04-25T10:38:24;17.60;;;16.80;;
2175;SDS011;1094;49.902;10.876;2023-04-25T10:41:02;17.70;;;16.90;;
2175;SDS011;1094;49.902;10.876;2023-04-25T10:45:59;18.53;;;17.40;;
2175;SDS011;1094;49.902;10.876;2023-04-25T10:48:25;18.77;;;17.67;;
2175;SDS011;1094;49.902;10.876;2023-04-25T10:51:10;18.80;;;17.80;;
2175;SDS011;1094;49.902;10.876;2023-04-25T10:53:36;18.90;;;17.90;;
2175;SDS011;1094;49.902;10.876;2023-04-25T10:56:11;19.13;;;18.13;;
2175;SDS011;1094;49.902;10.876;2023-04-25T10:58:41;18.50;;;17.60;;
2175;SDS011;1094;49.902;10.876;2023-04-25T11:01:07;19.00;;;18.10;;
2175;SDS011;1094;49.902;10.876;2023-04-25T11:03:37;18.80;;;17.80;;
2175;SDS011;1094;49.902;10.876;2023-04-25T11:06:03;19.20;;;18.20;;
2175;SDS011;1094;49.902;10.876;2023-04-25T11:08:35;19.53;;;18.53;;
2175;SDS011;1094;49.902;10.876;2023-04-25T11:11:03;20.23;;;18.93;;
2175;SDS011;1094;49.902;10.876;2023-04-25T11:13:29;19.07;;;18.17;;
2175;SDS011;1094;49.902;10.876;2023-04-25T11:15:55;19.13;;;18.10;;
2175;SDS011;1094;49.902;10.876;2023-04-25T11:18:21;19.17;;;18.17;;
2175;SDS011;1094;49.902;10.876;2023-04-25T11:20:47;19.57;;;18.57;;
2175;SDS011;1094;49.902;10.876;2023-04-25T11:23:13;19.50;;;18.40;;
2175;SDS011;1094;49.902;10.876;2023-04-25T11:25:41;19.50;;;18.40;;
2175;SDS011;1094;49.902;10.876;2023-04-25T11:28:07;18.90;;;17.90;;
2175;SDS011;1094;49.902;10.876;2023-04-25T11:30:33;18.37;;;17.47;;
2175;SDS011;1094;49.902;10.876;2023-04-25T11:32:59;18.30;;;17.40;;
2175;SDS011;1094;49.902;10.876;2023-04-25T11:35:27;18.70;;;17.80;;
2175;SDS011;1094;49.902;10.876;2023-04-25T11:37:53;18.77;;;17.87;;
2175;SDS011;1094;49.902;10.876;2023-04-25T11:40:19;19.50;;;18.40;;
2175;SDS011;1094;49.902;10.876;2023-04-25T11:42:46;19.30;;;18.30;;
2175;SDS011;1094;49.902;10.876;2023-04-25T11:45:12;19.77;;;18.67;;
2175;SDS011;1094;49.902;10.876;2023-04-25T11:47:38;18.63;;;17.63;;
2175;SDS011;1094;49.902;10.876;2023-04-25T11:50:06;20.03;;;18.83;;
2175;SDS011;1094;49.902;10.876;2023-04-25T11:52:36;20.00;;;18.50;;
2175;SDS011;1094;49.902;10.876;2023-04-25T11:55:06;19.50;;;18.50;;
2175;SDS011;1094;49.902;10.876;2023-04-25T11:57:33;20.73;;;19.53;;
2175;SDS011;1094;49.902;10.876;2023-04-25T12:00:12;19.93;;;18.83;;
2175;SDS011;1094;49.902;10.876;2023-04-25T12:02:42;20.27;;;19.03;;
2175;SDS011;1094;49.902;10.876;2023-04-25T12:05:09;19.87;;;18.77;;
2175;SDS011;1094;49.902;10.876;2023-04-25T12:07:35;20.10;;;18.80;;
2175;SDS011;1094;49.902;10.876;2023-04-25T12:10:06;20.57;;;19.37;;
2175;SDS011;1094;49.902;10.876;2023-04-25T12:12:33;21.83;;;20.00;;
2175;SDS011;1094;49.902;10.876;2023-04-25T12:15:09;22.40;;;20.87;;
2175;SDS011;1094;49.902;10.876;2023-04-25T12:17:35;20.80;;;19.50;;
2175;SDS011;1094;49.902;10.876;2023-04-25T12:20:06;21.07;;;19.57;;
2175;SDS011;1094;49.902;10.876;2023-04-25T12:22:32;20.10;;;19.00;;
2175;SDS011;1094;49.902;10.876;2023-04-25T12:24:59;20.70;;;19.50;;
2175;SDS011;1094;49.902;10.876;2023-04-25T12:27:25;20.20;;;19.10;;
2175;SDS011;1094;49.902;10.876;2023-04-25T12:29:53;19.67;;;18.57;;
2175;SDS011;1094;49.902;10.876;2023-04-25T12:32:19;20.60;;;19.20;;
2175;SDS011;1094;49.902;10.876;2023-04-25T12:34:45;20.70;;;19.40;;
2175;SDS011;1094;49.902;10.876;2023-04-25T12:37:12;19.83;;;18.63;;
2175;SDS011;1094;49.902;10.876;2023-04-25T12:39:38;20.23;;;18.80;;
2175;SDS011;1094;49.902;10.876;2023-04-25T12:42:04;19.57;;;18.57;;
2175;SDS011;1094;49.902;10.876;2023-04-25T12:44:32;20.13;;;18.87;;
2175;SDS011;1094;49.902;10.876;2023-04-25T12:46:58;19.47;;;18.30;;
2175;SDS011;1094;49.902;10.876;2023-04-25T12:49:24;19.70;;;18.60;;
2175;SDS011;1094;49.902;10.876;2023-04-25T12:51:51;18.90;;;17.90;;
2175;SDS011;1094;49.902;10.876;2023-04-25T12:54:16;19.67;;;18.37;;
2175;SDS011;1094;49.902;10.876;2023-04-25T12:56:42;21.30;;;19.80;;
2175;SDS011;1094;49.902;10.876;2023-04-25T12:59:08;19.83;;;18.73;;
2175;SDS011;1094;49.902;10.876;2023-04-25T13:01:34;19.87;;;18.83;;
2175;SDS011;1094;49.902;10.876;2023-04-25T13:04:00;19.90;;;18.77;;
2175;SDS011;1094;49.902;10.876;2023-04-25T13:06:26;19.30;;;18.20;;
2175;SDS011;1094;49.902;10.876;2023-04-25T13:08:52;19.47;;;18.27;;
2175;SDS011;1094;49.902;10.876;2023-04-25T13:11:19;19.47;;;18.47;;
2175;SDS011;1094;49.902;10.876;2023-04-25T13:13:45;19.20;;;18.10;;
2175;SDS011;1094;49.902;10.876;2023-04-25T13:16:11;19.00;;;18.00;;
2175;SDS011;1094;49.902;10.876;2023-04-25T13:18:39;19.80;;;18.60;;
2175;SDS011;1094;49.902;10.876;2023-04-25T13:21:05;19.83;;;18.80;;
2175;SDS011;1094;49.902;10.876;2023-04-25T13:23:31;20.20;;;18.93;;
2175;SDS011;1094;49.902;10.876;2023-04-25T13:25:57;19.73;;;18.63;;
2175;SDS011;1094;49.902;10.876;2023-04-25T13:28:23;19.37;;;18.27;;
2175;SDS011;1094;49.902;10.876;2023-04-25T13:30:50;19.63;;;18.43;;
2175;SDS011;1094;49.902;10.876;2023-04-25T13:33:16;19.90;;;18.70;;
2175;SDS011;1094;49.902;10.876;2023-04-25T13:35:42;19.57;;;18.43;;
2175;SDS011;1094;49.902;10.876;2023-04-25T13:38:11;19.83;;;18.73;;
2175;SDS011;1094;49.902;10.876;2023-04-25T13:40:37;19.87;;;18.77;;
2175;SDS011;1094;49.902;10.876;2023-04-25T13:43:03;19.37;;;18.37;;
2175;SDS011;1094;49.902;10.876;2023-04-25T13:45:31;19.50;;;18.40;;
2175;SDS011;1094;49.902;10.876;2023-04-25T13:47:57;20.17;;;18.97;;
2175;SDS011;1094;49.902;10.876;2023-04-25T13:50:23;20.83;;;19.63;;
2175;SDS011;1094;49.902;10.876;2023-04-25T13:52:49;20.17;;;19.07;;
2175;SDS011;1094;49.902;10.876;2023-04-25T13:55:15;20.77;;;19.47;;
2175;SDS011;1094;49.902;10.876;2023-04-25T13:57:41;20.50;;;19.30;;
2175;SDS011;1094;49.902;10.876;2023-04-25T14:00:07;20.87;;;19.77;;
2175;SDS011;1094;49.902;10.876;2023-04-25T14:02:36;20.00;;;18.90;;
2175;SDS011;1094;49.902;10.876;2023-04-25T14:05:03;20.47;;;19.37;;
2175;SDS011;1094;49.902;10.876;2023-04-25T14:07:30;21.00;;;19.60;;
2175;SDS011;1094;49.902;10.876;2023-04-25T14:09:56;20.20;;;19.10;;
2175;SDS011;1094;49.902;10.876;2023-04-25T14:12:23;20.50;;;19.43;;
2175;SDS011;1094;49.902;10.876;2023-04-25T14:14:49;20.87;;;19.67;;
2175;SDS011;1094;49.902;10.876;2023-04-25T14:17:15;20.20;;;19.00;;
2175;SDS011;1094;49.902;10.876;2023-04-25T14:19:41;20.23;;;18.93;;
2175;SDS011;1094;49.902;10.876;2023-04-25T14:22:10;20.60;;;19.60;;
2175;SDS011;1094;49.902;10.876;2023-04-25T14:24:36;20.33;;;19.23;;
2175;SDS011;1094;49.902;10.876;2023-04-25T14:27:03;20.97;;;19.53;;
2175;SDS011;1094;49.902;10.876;2023-04-25T14:29:29;20.40;;;19.20;;
2175;SDS011;1094;49.902;10.876;2023-04-25T14:31:55;20.60;;;19.40;;
2175;SDS011;1094;49.902;10.876;2023-04-25T14:34:22;21.53;;;20.00;;